sensor_id;sensor_type;location;lat;lon;timestamp;temperature;humidity
11983;DHT22;72623;51.184;7.176;2023-09-12T00:00:06;20.60;99.90
11983;DHT22;72623;51.184;7.176;2023-09-12T00:02:33;20.60;99.90
11983;DHT22;72623;51.184;7.176;2023-09-12T00:05:00;20.50;99.90
11983;DHT22;72623;51.184;7.176;2023-09-12T00:07:27;20.40;99.90
11983;DHT22;72623;51.184;7.176;2023-09-12T00:09:53;20.30;99.90
11983;DHT22;72623;51.184;7.176;2023-09-12T00:12:22;20.20;99.90
11983;DHT22;72623;51.184;7.176;2023-09-12T00:14:49;20.30;99.90
11983;DHT22;72623;51.184;7.176;2023-09-12T00:17:16;20.40;99.90
11983;DHT22;72623;51.184;7.176;2023-09-12T00:19:43;20.40;99.90
11983;DHT22;72623;51.184;7.176;2023-09-12T00:22:10;20.40;99.90
11983;DHT22;72623;51.184;7.176;2023-09-12T00:24:36;20.50;99.90
11983;DHT22;72623;51.184;7.176;2023-09-12T00:27:04;20.60;99.90
11983;DHT22;72623;51.184;7.176;2023-09-12T00:29:31;20.50;99.90
11983;DHT22;72623;51.184;7.176;2023-09-12T00:31:58;20.40;99.90
11983;DHT22;72623;51.184;7.176;2023-09-12T00:34:24;20.40;99.90
11983;DHT22;72623;51.184;7.176;2023-09-12T00:36:51;20.30;99.90
11983;DHT22;72623;51.184;7.176;2023-09-12T00:39:18;20.20;99.90
11983;DHT22;72623;51.184;7.176;2023-09-12T00:41:44;20.20;99.90
11983;DHT22;72623;51.184;7.176;2023-09-12T00:44:11;20.20;99.90
11983;DHT22;72623;51.184;7.176;2023-09-12T00:46:38;20.20;99.90
11983;DHT22;72623;51.184;7.176;2023-09-12T00:49:06;20.00;99.90
11983;DHT22;72623;51.184;7.176;2023-09-12T00:51:34;20.00;99.90
11983;DHT22;72623;51.184;7.176;2023-09-12T00:54:02;19.90;99.90
11983;DHT22;72623;51.184;7.176;2023-09-12T00:56:29;19.80;99.90
11983;DHT22;72623;51.184;7.176;2023-09-12T00:58:56;19.90;99.90
11983;DHT22;72623;51.184;7.176;2023-09-12T01:01:23;19.80;99.90
11983;DHT22;72623;51.184;7.176;2023-09-12T01:03:50;19.80;99.90
11983;DHT22;72623;51.184;7.176;2023-09-12T01:06:22;19.80;99.90
11983;DHT22;72623;51.184;7.176;2023-09-12T01:08:51;19.80;99.90
11983;DHT22;72623;51.184;7.176;2023-09-12T01:11:18;19.80;99.90
11983;DHT22;72623;51.184;7.176;2023-09-12T01:13:45;19.80;99.90
11983;DHT22;72623;51.184;7.176;2023-09-12T01:16:11;19.90;99.90
11983;DHT22;72623;51.184;7.176;2023-09-12T01:18:38;19.90;99.90
11983;DHT22;72623;51.184;7.176;2023-09-12T01:27:40;19.90;99.90
11983;DHT22;72623;51.184;7.176;2023-09-12T01:29:43;19.90;99.90
11983;DHT22;72623;51.184;7.176;2023-09-12T01:32:11;19.80;99.90
11983;DHT22;72623;51.184;7.176;2023-09-12T01:34:38;19.80;99.90
11983;DHT22;72623;51.184;7.176;2023-09-12T01:37:05;19.80;99.90
11983;DHT22;72623;51.184;7.176;2023-09-12T01:39:31;19.80;99.90
11983;DHT22;72623;51.184;7.176;2023-09-12T01:41:59;19.70;99.90
11983;DHT22;72623;51.184;7.176;2023-09-12T01:44:27;19.70;99.90
11983;DHT22;72623;51.184;7.176;2023-09-12T01:46:58;19.70;99.90
11983;DHT22;72623;51.184;7.176;2023-09-12T01:49:28;19.70;99.90
11983;DHT22;72623;51.184;7.176;2023-09-12T01:51:56;19.80;99.90
11983;DHT22;72623;51.184;7.176;2023-09-12T01:54:25;19.80;99.90
11983;DHT22;72623;51.184;7.176;2023-09-12T01:56:53;19.80;99.90
11983;DHT22;72623;51.184;7.176;2023-09-12T01:59:23;19.80;99.90
11983;DHT22;72623;51.184;7.176;2023-09-12T02:01:50;19.90;99.90
11983;DHT22;72623;51.184;7.176;2023-09-12T02:04:17;19.80;99.90
11983;DHT22;72623;51.184;7.176;2023-09-12T02:06:43;19.80;99.90
11983;DHT22;72623;51.184;7.176;2023-09-12T02:09:10;19.80;99.90
11983;DHT22;72623;51.184;7.176;2023-09-12T02:11:37;19.80;99.90
11983;DHT22;72623;51.184;7.176;2023-09-12T02:14:03;19.80;99.90
11983;DHT22;72623;51.184;7.176;2023-09-12T02:16:31;19.70;99.90
11983;DHT22;72623;51.184;7.176;2023-09-12T02:18:58;19.70;99.90
11983;DHT22;72623;51.184;7.176;2023-09-12T02:21:24;19.70;99.90
11983;DHT22;72623;51.184;7.176;2023-09-12T02:23:51;19.70;99.90
11983;DHT22;72623;51.184;7.176;2023-09-12T02:26:18;19.60;99.90
11983;DHT22;72623;51.184;7.176;2023-09-12T02:28:45;19.50;99.90
11983;DHT22;72623;51.184;7.176;2023-09-12T02:31:12;19.60;99.90
11983;DHT22;72623;51.184;7.176;2023-09-12T02:33:39;19.50;99.90
11983;DHT22;72623;51.184;7.176;2023-09-12T02:36:06;19.50;99.90
11983;DHT22;72623;51.184;7.176;2023-09-12T02:38:32;19.50;99.90
11983;DHT22;72623;51.184;7.176;2023-09-12T02:40:59;19.60;99.90
11983;DHT22;72623;51.184;7.176;2023-09-12T02:43:27;19.60;99.90
11983;DHT22;72623;51.184;7.176;2023-09-12T02:45:54;19.60;99.90
11983;DHT22;72623;51.184;7.176;2023-09-12T02:48:20;19.60;99.90
11983;DHT22;72623;51.184;7.176;2023-09-12T02:50:47;19.50;99.90
11983;DHT22;72623;51.184;7.176;2023-09-12T02:53:14;19.40;99.90
11983;DHT22;72623;51.184;7.176;2023-09-12T02:55:42;19.40;99.90
11983;DHT22;72623;51.184;7.176;2023-09-12T02:58:09;19.30;99.90
11983;DHT22;72623;51.184;7.176;2023-09-12T03:00:39;19.40;99.90
11983;DHT22;72623;51.184;7.176;2023-09-12T03:03:06;19.50;99.90
11983;DHT22;72623;51.184;7.176;2023-09-12T03:05:34;19.60;99.90
11983;DHT22;72623;51.184;7.176;2023-09-12T03:08:01;19.60;99.90
11983;DHT22;72623;51.184;7.176;2023-09-12T03:10:29;19.60;99.90
11983;DHT22;72623;51.184;7.176;2023-09-12T03:12:55;19.60;99.90
11983;DHT22;72623;51.184;7.176;2023-09-12T03:15:22;19.50;99.90
11983;DHT22;72623;51.184;7.176;2023-09-12T03:17:49;19.40;99.90
11983;DHT22;72623;51.184;7.176;2023-09-12T03:20:15;19.30;99.90
11983;DHT22;72623;51.184;7.176;2023-09-12T03:22:42;19.30;99.90
11983;DHT22;72623;51.184;7.176;2023-09-12T03:25:10;19.30;99.90
11983;DHT22;72623;51.184;7.176;2023-09-12T03:27:37;19.30;99.90
11983;DHT22;72623;51.184;7.176;2023-09-12T03:30:04;19.30;99.90
11983;DHT22;72623;51.184;7.176;2023-09-12T03:32:31;19.30;99.90
11983;DHT22;72623;51.184;7.176;2023-09-12T03:34:58;19.30;99.90
11983;DHT22;72623;51.184;7.176;2023-09-12T03:37:25;19.30;99.90
11983;DHT22;72623;51.184;7.176;2023-09-12T03:39:52;19.20;99.90
11983;DHT22;72623;51.184;7.176;2023-09-12T03:42:19;19.20;99.90
11983;DHT22;72623;51.184;7.176;2023-09-12T03:44:46;19.20;99.90
11983;DHT22;72623;51.184;7.176;2023-09-12T03:47:12;19.10;99.90
11983;DHT22;72623;51.184;7.176;2023-09-12T03:49:39;19.10;99.90
11983;DHT22;72623;51.184;7.176;2023-09-12T03:52:06;19.00;99.90
11983;DHT22;72623;51.184;7.176;2023-09-12T03:54:32;19.00;99.90
11983;DHT22;72623;51.184;7.176;2023-09-12T03:56:59;18.90;99.90
11983;DHT22;72623;51.184;7.176;2023-09-12T03:59:25;19.00;99.90
11983;DHT22;72623;51.184;7.176;2023-09-12T04:01:52;19.00;99.90
11983;DHT22;72623;51.184;7.176;2023-09-12T04:04:19;18.90;99.90
11983;DHT22;72623;51.184;7.176;2023-09-12T04:06:45;18.90;99.90
11983;DHT22;72623;51.184;7.176;2023-09-12T04:09:12;18.80;99.90
11983;DHT22;72623;51.184;7.176;2023-09-12T04:11:39;18.70;99.90
11983;DHT22;72623;51.184;7.176;2023-09-12T04:14:05;18.70;99.90
11983;DHT22;72623;51.184;7.176;2023-09-12T04:16:32;18.60;99.90
11983;DHT22;72623;51.184;7.176;2023-09-12T04:18:59;18.60;99.90
11983;DHT22;72623;51.184;7.176;2023-09-12T04:21:25;18.60;99.90
11983;DHT22;72623;51.184;7.176;2023-09-12T04:23:52;18.60;99.90
11983;DHT22;72623;51.184;7.176;2023-09-12T04:26:19;18.50;99.90
11983;DHT22;72623;51.184;7.176;2023-09-12T04:28:48;18.60;99.90
11983;DHT22;72623;51.184;7.176;2023-09-12T04:31:15;18.60;99.90
11983;DHT22;72623;51.184;7.176;2023-09-12T04:33:42;18.60;99.90
11983;DHT22;72623;51.184;7.176;2023-09-12T04:36:09;18.70;99.90
11983;DHT22;72623;51.184;7.176;2023-09-12T04:38:35;18.60;99.90
11983;DHT22;72623;51.184;7.176;2023-09-12T04:41:02;18.60;99.90
11983;DHT22;72623;51.184;7.176;2023-09-12T04:43:31;18.70;99.90
11983;DHT22;72623;51.184;7.176;2023-09-12T04:45:58;18.70;99.90
11983;DHT22;72623;51.184;7.176;2023-09-12T04:48:24;18.70;99.90
11983;DHT22;72623;51.184;7.176;2023-09-12T04:50:51;18.80;99.90
11983;DHT22;72623;51.184;7.176;2023-09-12T04:53:18;18.80;99.90
11983;DHT22;72623;51.184;7.176;2023-09-12T04:55:44;18.90;99.90
11983;DHT22;72623;51.184;7.176;2023-09-12T04:58:11;18.90;99.90
11983;DHT22;72623;51.184;7.176;2023-09-12T05:00:39;19.00;99.90
11983;DHT22;72623;51.184;7.176;2023-09-12T05:03:06;19.00;99.90
11983;DHT22;72623;51.184;7.176;2023-09-12T05:05:34;19.00;99.90
11983;DHT22;72623;51.184;7.176;2023-09-12T05:08:02;19.10;99.90
11983;DHT22;72623;51.184;7.176;2023-09-12T05:10:30;19.10;99.90
11983;DHT22;72623;51.184;7.176;2023-09-12T05:12:56;19.10;99.90
11983;DHT22;72623;51.184;7.176;2023-09-12T05:15:23;19.10;99.90
11983;DHT22;72623;51.184;7.176;2023-09-12T05:17:50;19.20;99.90
11983;DHT22;72623;51.184;7.176;2023-09-12T05:20:16;19.20;99.90
11983;DHT22;72623;51.184;7.176;2023-09-12T05:22:43;19.00;99.90
11983;DHT22;72623;51.184;7.176;2023-09-12T05:25:10;18.60;99.90
11983;DHT22;72623;51.184;7.176;2023-09-12T05:27:36;18.40;99.90
11983;DHT22;72623;51.184;7.176;2023-09-12T05:30:03;18.20;99.90
11983;DHT22;72623;51.184;7.176;2023-09-12T05:32:30;18.10;99.90
11983;DHT22;72623;51.184;7.176;2023-09-12T05:34:57;18.10;99.90
11983;DHT22;72623;51.184;7.176;2023-09-12T05:37:24;18.10;99.90
11983;DHT22;72623;51.184;7.176;2023-09-12T05:39:50;18.10;99.90
11983;DHT22;72623;51.184;7.176;2023-09-12T05:42:17;18.20;99.90
11983;DHT22;72623;51.184;7.176;2023-09-12T05:44:48;18.20;99.90
11983;DHT22;72623;51.184;7.176;2023-09-12T05:47:16;18.30;99.90
11983;DHT22;72623;51.184;7.176;2023-09-12T05:49:42;18.40;99.90
11983;DHT22;72623;51.184;7.176;2023-09-12T05:52:09;18.40;99.90
11983;DHT22;72623;51.184;7.176;2023-09-12T05:54:36;18.40;99.90
11983;DHT22;72623;51.184;7.176;2023-09-12T05:57:03;18.50;99.90
11983;DHT22;72623;51.184;7.176;2023-09-12T05:59:30;18.60;99.90
11983;DHT22;72623;51.184;7.176;2023-09-12T06:01:57;18.60;99.90
11983;DHT22;72623;51.184;7.176;2023-09-12T06:04:23;18.70;99.90
11983;DHT22;72623;51.184;7.176;2023-09-12T06:06:50;18.70;99.90
11983;DHT22;72623;51.184;7.176;2023-09-12T06:09:17;18.80;99.90
11983;DHT22;72623;51.184;7.176;2023-09-12T06:11:43;18.90;99.90
11983;DHT22;72623;51.184;7.176;2023-09-12T06:14:10;18.90;99.90
11983;DHT22;72623;51.184;7.176;2023-09-12T06:16:37;19.10;99.90
11983;DHT22;72623;51.184;7.176;2023-09-12T06:19:03;19.30;99.90
11983;DHT22;72623;51.184;7.176;2023-09-12T06:21:30;19.40;99.90
11983;DHT22;72623;51.184;7.176;2023-09-12T06:24:13;19.40;99.90
11983;DHT22;72623;51.184;7.176;2023-09-12T06:29:55;19.60;99.90
11983;DHT22;72623;51.184;7.176;2023-09-12T06:32:21;19.90;99.90
11983;DHT22;72623;51.184;7.176;2023-09-12T06:34:48;20.10;99.90
11983;DHT22;72623;51.184;7.176;2023-09-12T06:37:15;20.20;99.90
11983;DHT22;72623;51.184;7.176;2023-09-12T06:39:42;20.30;99.90
11983;DHT22;72623;51.184;7.176;2023-09-12T06:42:09;20.40;99.90
11983;DHT22;72623;51.184;7.176;2023-09-12T06:44:36;20.30;99.90
11983;DHT22;72623;51.184;7.176;2023-09-12T06:47:05;20.40;99.90
11983;DHT22;72623;51.184;7.176;2023-09-12T06:49:32;20.60;99.90
11983;DHT22;72623;51.184;7.176;2023-09-12T06:52:01;21.00;99.90
11983;DHT22;72623;51.184;7.176;2023-09-12T06:54:28;21.50;99.90
11983;DHT22;72623;51.184;7.176;2023-09-12T06:56:54;22.20;99.90
11983;DHT22;72623;51.184;7.176;2023-09-12T06:59:31;22.80;99.90
11983;DHT22;72623;51.184;7.176;2023-09-12T07:01:58;24.30;99.90
11983;DHT22;72623;51.184;7.176;2023-09-12T07:04:25;25.60;99.90
11983;DHT22;72623;51.184;7.176;2023-09-12T07:06:52;25.60;99.90
11983;DHT22;72623;51.184;7.176;2023-09-12T07:09:19;25.50;99.90
11983;DHT22;72623;51.184;7.176;2023-09-12T07:11:47;25.80;99.90
11983;DHT22;72623;51.184;7.176;2023-09-12T07:14:13;25.80;99.90
11983;DHT22;72623;51.184;7.176;2023-09-12T07:16:40;27.10;99.90
11983;DHT22;72623;51.184;7.176;2023-09-12T07:19:07;27.60;99.90
11983;DHT22;72623;51.184;7.176;2023-09-12T07:21:35;28.70;96.40
11983;DHT22;72623;51.184;7.176;2023-09-12T07:24:02;30.40;78.10
11983;DHT22;72623;51.184;7.176;2023-09-12T07:26:38;31.00;57.20
11983;DHT22;72623;51.184;7.176;2023-09-12T07:29:05;31.50;50.20
11983;DHT22;72623;51.184;7.176;2023-09-12T07:31:32;30.10;53.30
11983;DHT22;72623;51.184;7.176;2023-09-12T07:33:59;28.80;76.90
11983;DHT22;72623;51.184;7.176;2023-09-12T07:36:25;27.40;94.20
11983;DHT22;72623;51.184;7.176;2023-09-12T07:38:52;27.70;97.80
11983;DHT22;72623;51.184;7.176;2023-09-12T07:41:19;29.60;77.90
11983;DHT22;72623;51.184;7.176;2023-09-12T07:43:45;30.70;68.60
11983;DHT22;72623;51.184;7.176;2023-09-12T07:46:12;30.60;53.80
11983;DHT22;72623;51.184;7.176;2023-09-12T07:48:39;29.20;59.80
11983;DHT22;72623;51.184;7.176;2023-09-12T07:51:15;28.40;80.40
11983;DHT22;72623;51.184;7.176;2023-09-12T07:53:43;27.20;92.90
11983;DHT22;72623;51.184;7.176;2023-09-12T07:56:10;26.60;97.20
11983;DHT22;72623;51.184;7.176;2023-09-12T07:58:36;25.90;99.90
11983;DHT22;72623;51.184;7.176;2023-09-12T08:01:07;25.40;99.90
11983;DHT22;72623;51.184;7.176;2023-09-12T08:03:35;25.10;99.90
11983;DHT22;72623;51.184;7.176;2023-09-12T08:06:04;25.20;99.90
11983;DHT22;72623;51.184;7.176;2023-09-12T08:08:31;25.20;99.90
11983;DHT22;72623;51.184;7.176;2023-09-12T08:10:57;24.80;99.90
11983;DHT22;72623;51.184;7.176;2023-09-12T08:13:28;24.50;99.90
11983;DHT22;72623;51.184;7.176;2023-09-12T08:15:56;24.00;99.90
11983;DHT22;72623;51.184;7.176;2023-09-12T08:18:30;24.10;99.90
11983;DHT22;72623;51.184;7.176;2023-09-12T08:20:57;25.40;99.90
11983;DHT22;72623;51.184;7.176;2023-09-12T08:23:24;25.90;99.90
11983;DHT22;72623;51.184;7.176;2023-09-12T08:25:50;27.30;99.00
11983;DHT22;72623;51.184;7.176;2023-09-12T08:28:17;29.60;77.90
11983;DHT22;72623;51.184;7.176;2023-09-12T08:30:47;30.80;52.90
11983;DHT22;72623;51.184;7.176;2023-09-12T08:33:14;30.70;50.10
11983;DHT22;72623;51.184;7.176;2023-09-12T08:35:40;30.20;52.00
11983;DHT22;72623;51.184;7.176;2023-09-12T08:38:07;30.90;51.80
11983;DHT22;72623;51.184;7.176;2023-09-12T08:40:34;31.10;46.30
11983;DHT22;72623;51.184;7.176;2023-09-12T08:43:02;32.10;34.90
11983;DHT22;72623;51.184;7.176;2023-09-12T08:45:30;31.40;34.80
11983;DHT22;72623;51.184;7.176;2023-09-12T08:47:59;31.70;35.40
11983;DHT22;72623;51.184;7.176;2023-09-12T08:50:26;33.20;30.00
11983;DHT22;72623;51.184;7.176;2023-09-12T08:52:56;34.10;23.10
11983;DHT22;72623;51.184;7.176;2023-09-12T08:55:23;34.10;20.30
11983;DHT22;72623;51.184;7.176;2023-09-12T08:57:50;33.20;21.50
11983;DHT22;72623;51.184;7.176;2023-09-12T09:00:17;32.40;23.20
11983;DHT22;72623;51.184;7.176;2023-09-12T09:02:45;31.00;30.00
11983;DHT22;72623;51.184;7.176;2023-09-12T09:05:11;30.40;39.00
11983;DHT22;72623;51.184;7.176;2023-09-12T09:07:40;30.20;44.80
11983;DHT22;72623;51.184;7.176;2023-09-12T09:10:09;30.80;38.70
11983;DHT22;72623;51.184;7.176;2023-09-12T09:12:39;31.50;33.20
11983;DHT22;72623;51.184;7.176;2023-09-12T09:15:26;31.50;32.20
11983;DHT22;72623;51.184;7.176;2023-09-12T09:17:54;31.70;39.50
11983;DHT22;72623;51.184;7.176;2023-09-12T09:22:59;33.00;20.30
11983;DHT22;72623;51.184;7.176;2023-09-12T09:25:26;33.30;20.50
11983;DHT22;72623;51.184;7.176;2023-09-12T09:31:01;33.70;18.30
11983;DHT22;72623;51.184;7.176;2023-09-12T09:33:35;33.60;16.80
11983;DHT22;72623;51.184;7.176;2023-09-12T09:36:03;34.20;18.10
11983;DHT22;72623;51.184;7.176;2023-09-12T09:38:31;35.40;14.30
11983;DHT22;72623;51.184;7.176;2023-09-12T09:41:10;36.10;8.80
11983;DHT22;72623;51.184;7.176;2023-09-12T09:43:37;37.20;5.70
11983;DHT22;72623;51.184;7.176;2023-09-12T09:46:04;37.70;3.20
11983;DHT22;72623;51.184;7.176;2023-09-12T09:48:30;38.30;1.00
11983;DHT22;72623;51.184;7.176;2023-09-12T09:51:01;38.10;1.00
11983;DHT22;72623;51.184;7.176;2023-09-12T09:53:29;39.20;1.00
11983;DHT22;72623;51.184;7.176;2023-09-12T09:56:11;40.00;1.00
11983;DHT22;72623;51.184;7.176;2023-09-12T09:58:48;41.90;1.00
11983;DHT22;72623;51.184;7.176;2023-09-12T10:01:20;41.70;1.00
11983;DHT22;72623;51.184;7.176;2023-09-12T10:03:48;42.70;1.00
11983;DHT22;72623;51.184;7.176;2023-09-12T10:06:17;44.60;1.00
11983;DHT22;72623;51.184;7.176;2023-09-12T10:08:45;44.20;1.00
11983;DHT22;72623;51.184;7.176;2023-09-12T10:11:16;42.90;1.00
11983;DHT22;72623;51.184;7.176;2023-09-12T10:13:48;40.90;1.00
11983;DHT22;72623;51.184;7.176;2023-09-12T10:16:16;38.70;1.00
11983;DHT22;72623;51.184;7.176;2023-09-12T10:18:55;37.10;1.00
11983;DHT22;72623;51.184;7.176;2023-09-12T10:21:30;36.00;1.00
11983;DHT22;72623;51.184;7.176;2023-09-12T10:23:58;34.60;1.00
11983;DHT22;72623;51.184;7.176;2023-09-12T10:26:26;33.50;1.00
11983;DHT22;72623;51.184;7.176;2023-09-12T10:28:54;33.40;1.00
11983;DHT22;72623;51.184;7.176;2023-09-12T10:34:27;36.20;1.00
11983;DHT22;72623;51.184;7.176;2023-09-12T10:36:58;39.10;1.00
11983;DHT22;72623;51.184;7.176;2023-09-12T10:39:27;36.90;1.00
11983;DHT22;72623;51.184;7.176;2023-09-12T10:45:16;38.00;1.00
11983;DHT22;72623;51.184;7.176;2023-09-12T10:48:02;36.70;1.00
11983;DHT22;72623;51.184;7.176;2023-09-12T10:50:29;37.80;1.00
11983;DHT22;72623;51.184;7.176;2023-09-12T10:53:11;39.70;1.00
11983;DHT22;72623;51.184;7.176;2023-09-12T10:55:38;40.90;1.00
11983;DHT22;72623;51.184;7.176;2023-09-12T10:58:07;41.80;1.00
11983;DHT22;72623;51.184;7.176;2023-09-12T11:00:35;41.60;1.00
11983;DHT22;72623;51.184;7.176;2023-09-12T11:05:55;40.00;1.00
11983;DHT22;72623;51.184;7.176;2023-09-12T11:08:22;37.70;1.00
11983;DHT22;72623;51.184;7.176;2023-09-12T11:11:18;36.30;1.00
11983;DHT22;72623;51.184;7.176;2023-09-12T11:13:46;35.80;1.00
11983;DHT22;72623;51.184;7.176;2023-09-12T11:16:14;34.90;1.00
11983;DHT22;72623;51.184;7.176;2023-09-12T11:21:48;33.30;1.00
11983;DHT22;72623;51.184;7.176;2023-09-12T11:24:16;32.80;1.00
11983;DHT22;72623;51.184;7.176;2023-09-12T11:27:00;32.20;1.00
11983;DHT22;72623;51.184;7.176;2023-09-12T11:29:42;32.40;1.00
11983;DHT22;72623;51.184;7.176;2023-09-12T11:32:09;31.70;4.90
11983;DHT22;72623;51.184;7.176;2023-09-12T11:34:41;32.50;4.00
11983;DHT22;72623;51.184;7.176;2023-09-12T11:37:08;33.70;3.50
11983;DHT22;72623;51.184;7.176;2023-09-12T11:39:36;34.40;1.10
11983;DHT22;72623;51.184;7.176;2023-09-12T11:42:04;35.30;1.30
11983;DHT22;72623;51.184;7.176;2023-09-12T11:44:34;37.10;1.00
11983;DHT22;72623;51.184;7.176;2023-09-12T11:47:01;36.10;1.00
11983;DHT22;72623;51.184;7.176;2023-09-12T11:49:41;36.40;1.00
11983;DHT22;72623;51.184;7.176;2023-09-12T11:52:12;36.60;1.00
11983;DHT22;72623;51.184;7.176;2023-09-12T11:54:44;34.80;1.00
11983;DHT22;72623;51.184;7.176;2023-09-12T11:57:14;35.40;1.00
11983;DHT22;72623;51.184;7.176;2023-09-12T11:59:42;36.00;1.00
11983;DHT22;72623;51.184;7.176;2023-09-12T12:02:10;36.20;1.00
11983;DHT22;72623;51.184;7.176;2023-09-12T12:04:38;36.80;1.00
11983;DHT22;72623;51.184;7.176;2023-09-12T12:07:05;35.80;1.00
11983;DHT22;72623;51.184;7.176;2023-09-12T12:09:34;34.20;1.00
11983;DHT22;72623;51.184;7.176;2023-09-12T12:12:11;34.80;1.00
11983;DHT22;72623;51.184;7.176;2023-09-12T12:14:39;33.60;1.00
11983;DHT22;72623;51.184;7.176;2023-09-12T12:17:11;33.60;1.00
11983;DHT22;72623;51.184;7.176;2023-09-12T12:19:38;33.80;1.00
11983;DHT22;72623;51.184;7.176;2023-09-12T12:22:06;33.70;1.00
11983;DHT22;72623;51.184;7.176;2023-09-12T12:24:46;33.90;1.00
11983;DHT22;72623;51.184;7.176;2023-09-12T12:27:16;33.90;1.00
11983;DHT22;72623;51.184;7.176;2023-09-12T12:29:43;34.40;1.00
11983;DHT22;72623;51.184;7.176;2023-09-12T12:32:20;34.80;1.00
11983;DHT22;72623;51.184;7.176;2023-09-12T12:34:49;34.40;1.00
11983;DHT22;72623;51.184;7.176;2023-09-12T12:37:16;34.30;1.00
11983;DHT22;72623;51.184;7.176;2023-09-12T12:39:43;33.20;1.00
11983;DHT22;72623;51.184;7.176;2023-09-12T12:42:10;34.50;1.00
11983;DHT22;72623;51.184;7.176;2023-09-12T12:44:36;35.50;1.00
11983;DHT22;72623;51.184;7.176;2023-09-12T12:47:06;35.30;1.00
11983;DHT22;72623;51.184;7.176;2023-09-12T12:49:38;35.70;1.00
11983;DHT22;72623;51.184;7.176;2023-09-12T12:52:05;35.70;1.00
11983;DHT22;72623;51.184;7.176;2023-09-12T12:54:35;36.30;1.00
11983;DHT22;72623;51.184;7.176;2023-09-12T12:57:02;35.00;1.00
11983;DHT22;72623;51.184;7.176;2023-09-12T12:59:28;35.00;1.00
11983;DHT22;72623;51.184;7.176;2023-09-12T13:02:00;35.20;1.00
11983;DHT22;72623;51.184;7.176;2023-09-12T13:04:26;34.10;1.00
11983;DHT22;72623;51.184;7.176;2023-09-12T13:06:53;32.80;1.00
11983;DHT22;72623;51.184;7.176;2023-09-12T13:09:19;32.80;2.50
11983;DHT22;72623;51.184;7.176;2023-09-12T13:11:46;34.50;1.00
11983;DHT22;72623;51.184;7.176;2023-09-12T13:14:13;35.10;1.00
11983;DHT22;72623;51.184;7.176;2023-09-12T13:16:39;33.80;1.00
11983;DHT22;72623;51.184;7.176;2023-09-12T13:19:06;33.00;1.00
11983;DHT22;72623;51.184;7.176;2023-09-12T13:21:33;33.10;1.00
11983;DHT22;72623;51.184;7.176;2023-09-12T13:24:00;33.00;1.00
11983;DHT22;72623;51.184;7.176;2023-09-12T13:26:27;32.70;1.70
11983;DHT22;72623;51.184;7.176;2023-09-12T13:28:54;30.90;9.10
11983;DHT22;72623;51.184;7.176;2023-09-12T13:31:20;30.00;15.20
11983;DHT22;72623;51.184;7.176;2023-09-12T13:33:47;29.50;21.30
11983;DHT22;72623;51.184;7.176;2023-09-12T13:36:14;29.40;25.60
11983;DHT22;72623;51.184;7.176;2023-09-12T13:38:40;29.40;26.90
11983;DHT22;72623;51.184;7.176;2023-09-12T13:41:07;29.30;30.50
11983;DHT22;72623;51.184;7.176;2023-09-12T13:43:34;29.40;37.40
11983;DHT22;72623;51.184;7.176;2023-09-12T13:46:00;29.50;37.10
11983;DHT22;72623;51.184;7.176;2023-09-12T13:48:27;29.10;43.20
11983;DHT22;72623;51.184;7.176;2023-09-12T13:50:54;28.30;54.20
11983;DHT22;72623;51.184;7.176;2023-09-12T13:53:20;28.20;57.30
11983;DHT22;72623;51.184;7.176;2023-09-12T13:55:47;27.90;62.10
11983;DHT22;72623;51.184;7.176;2023-09-12T13:58:14;27.90;72.40
11983;DHT22;72623;51.184;7.176;2023-09-12T14:00:41;27.40;82.80
11983;DHT22;72623;51.184;7.176;2023-09-12T14:03:07;27.10;91.80
11983;DHT22;72623;51.184;7.176;2023-09-12T14:05:34;26.80;95.40
11983;DHT22;72623;51.184;7.176;2023-09-12T14:08:00;26.80;96.00
11983;DHT22;72623;51.184;7.176;2023-09-12T14:10:27;26.70;95.80
11983;DHT22;72623;51.184;7.176;2023-09-12T14:12:54;26.60;94.50
11983;DHT22;72623;51.184;7.176;2023-09-12T14:15:20;26.70;93.20
11983;DHT22;72623;51.184;7.176;2023-09-12T14:17:47;26.80;92.40
11983;DHT22;72623;51.184;7.176;2023-09-12T14:20:14;26.50;94.50
11983;DHT22;72623;51.184;7.176;2023-09-12T14:22:42;26.20;95.10
11983;DHT22;72623;51.184;7.176;2023-09-12T14:25:10;26.40;97.60
11983;DHT22;72623;51.184;7.176;2023-09-12T14:27:40;26.50;94.80
11983;DHT22;72623;51.184;7.176;2023-09-12T14:30:07;26.50;95.70
11983;DHT22;72623;51.184;7.176;2023-09-12T14:35:50;26.10;96.90
11983;DHT22;72623;51.184;7.176;2023-09-12T14:38:16;26.10;97.40
11983;DHT22;72623;51.184;7.176;2023-09-12T14:40:43;26.00;99.90
11983;DHT22;72623;51.184;7.176;2023-09-12T14:43:09;26.00;99.90
11983;DHT22;72623;51.184;7.176;2023-09-12T14:45:36;26.10;99.90
11983;DHT22;72623;51.184;7.176;2023-09-12T14:48:03;26.10;97.80
11983;DHT22;72623;51.184;7.176;2023-09-12T14:50:30;26.00;97.20
11983;DHT22;72623;51.184;7.176;2023-09-12T14:52:57;25.80;97.80
11983;DHT22;72623;51.184;7.176;2023-09-12T14:55:23;25.80;98.60
11983;DHT22;72623;51.184;7.176;2023-09-12T14:57:50;25.90;96.30
11983;DHT22;72623;51.184;7.176;2023-09-12T15:00:20;25.80;97.80
11983;DHT22;72623;51.184;7.176;2023-09-12T15:02:46;25.80;97.60
11983;DHT22;72623;51.184;7.176;2023-09-12T15:05:13;25.80;97.30
11983;DHT22;72623;51.184;7.176;2023-09-12T15:07:39;25.70;96.90
11983;DHT22;72623;51.184;7.176;2023-09-12T15:10:06;25.80;97.10
11983;DHT22;72623;51.184;7.176;2023-09-12T15:12:33;25.80;98.00
11983;DHT22;72623;51.184;7.176;2023-09-12T15:14:59;25.70;99.40
11983;DHT22;72623;51.184;7.176;2023-09-12T15:17:26;25.60;99.10
11983;DHT22;72623;51.184;7.176;2023-09-12T15:19:53;25.50;99.90
11983;DHT22;72623;51.184;7.176;2023-09-12T15:22:19;25.60;98.70
11983;DHT22;72623;51.184;7.176;2023-09-12T15:24:46;25.50;97.60
11983;DHT22;72623;51.184;7.176;2023-09-12T15:27:12;25.70;97.70
11983;DHT22;72623;51.184;7.176;2023-09-12T15:29:39;25.80;98.50
11983;DHT22;72623;51.184;7.176;2023-09-12T15:32:06;25.80;97.60
11983;DHT22;72623;51.184;7.176;2023-09-12T15:34:32;26.00;96.80
11983;DHT22;72623;51.184;7.176;2023-09-12T15:37:12;26.10;96.70
11983;DHT22;72623;51.184;7.176;2023-09-12T15:39:39;26.20;96.50
11983;DHT22;72623;51.184;7.176;2023-09-12T15:42:07;26.00;97.20
11983;DHT22;72623;51.184;7.176;2023-09-12T15:44:34;26.00;96.90
11983;DHT22;72623;51.184;7.176;2023-09-12T15:47:00;25.90;98.50
11983;DHT22;72623;51.184;7.176;2023-09-12T15:49:27;26.10;97.90
11983;DHT22;72623;51.184;7.176;2023-09-12T15:51:55;26.00;97.20
11983;DHT22;72623;51.184;7.176;2023-09-12T15:54:22;26.00;97.00
11983;DHT22;72623;51.184;7.176;2023-09-12T15:56:49;26.00;97.10
11983;DHT22;72623;51.184;7.176;2023-09-12T15:59:16;25.80;96.40
11983;DHT22;72623;51.184;7.176;2023-09-12T16:01:42;25.80;96.90
11983;DHT22;72623;51.184;7.176;2023-09-12T16:04:09;25.60;97.90
11983;DHT22;72623;51.184;7.176;2023-09-12T16:06:36;25.20;99.90
11983;DHT22;72623;51.184;7.176;2023-09-12T16:09:02;25.20;99.90